sensor_id;sensor_type;location;lat;lon;timestamp;P1;durP1;ratioP1;P2;durP2;ratioP2
19312;SDS011;9791;50.820;4.406;2023-07-13T00:00:28;7.53;;;2.63;;
19312;SDS011;9791;50.820;4.406;2023-07-13T00:02:55;7.47;;;2.15;;
19312;SDS011;9791;50.820;4.406;2023-07-13T00:05:22;8.35;;;2.25;;
19312;SDS011;9791;50.820;4.406;2023-07-13T00:07:48;8.50;;;1.88;;
19312;SDS011;9791;50.820;4.406;2023-07-13T00:10:14;8.65;;;2.20;;
19312;SDS011;9791;50.820;4.406;2023-07-13T00:12:40;10.88;;;3.60;;
19312;SDS011;9791;50.820;4.406;2023-07-13T00:15:09;8.75;;;1.83;;
19312;SDS011;9791;50.820;4.406;2023-07-13T00:17:35;8.45;;;1.98;;
19312;SDS011;9791;50.820;4.406;2023-07-13T00:20:03;6.82;;;2.00;;
19312;SDS011;9791;50.820;4.406;2023-07-13T00:22:31;6.63;;;1.70;;
19312;SDS011;9791;50.820;4.406;2023-07-13T00:24:57;7.80;;;1.73;;
19312;SDS011;9791;50.820;4.406;2023-07-13T00:27:23;9.57;;;2.38;;
19312;SDS011;9791;50.820;4.406;2023-07-13T00:29:51;5.55;;;2.10;;
19312;SDS011;9791;50.820;4.406;2023-07-13T00:32:17;9.43;;;2.08;;
19312;SDS011;9791;50.820;4.406;2023-07-13T00:34:44;6.03;;;1.90;;
19312;SDS011;9791;50.820;4.406;2023-07-13T00:37:10;8.32;;;2.20;;
19312;SDS011;9791;50.820;4.406;2023-07-13T00:39:36;8.90;;;2.60;;
19312;SDS011;9791;50.820;4.406;2023-07-13T00:42:02;10.02;;;2.42;;
19312;SDS011;9791;50.820;4.406;2023-07-13T00:44:29;7.07;;;2.03;;
19312;SDS011;9791;50.820;4.406;2023-07-13T00:46:55;5.07;;;2.03;;
19312;SDS011;9791;50.820;4.406;2023-07-13T00:49:24;7.55;;;2.35;;
19312;SDS011;9791;50.820;4.406;2023-07-13T00:51:55;7.35;;;2.53;;
19312;SDS011;9791;50.820;4.406;2023-07-13T00:54:33;9.65;;;2.45;;
19312;SDS011;9791;50.820;4.406;2023-07-13T00:57:00;13.30;;;2.15;;
19312;SDS011;9791;50.820;4.406;2023-07-13T00:59:28;7.07;;;2.10;;
19312;SDS011;9791;50.820;4.406;2023-07-13T01:01:54;8.98;;;2.22;;
19312;SDS011;9791;50.820;4.406;2023-07-13T01:04:20;10.15;;;2.40;;
19312;SDS011;9791;50.820;4.406;2023-07-13T01:06:46;8.50;;;2.03;;
19312;SDS011;9791;50.820;4.406;2023-07-13T01:09:13;9.48;;;2.20;;
19312;SDS011;9791;50.820;4.406;2023-07-13T01:11:39;7.18;;;2.00;;
19312;SDS011;9791;50.820;4.406;2023-07-13T01:14:06;9.43;;;2.40;;
19312;SDS011;9791;50.820;4.406;2023-07-13T01:16:33;10.77;;;2.30;;
19312;SDS011;9791;50.820;4.406;2023-07-13T01:18:59;8.52;;;1.98;;
19312;SDS011;9791;50.820;4.406;2023-07-13T01:21:32;8.00;;;2.03;;
19312;SDS011;9791;50.820;4.406;2023-07-13T01:23:58;5.63;;;2.00;;
19312;SDS011;9791;50.820;4.406;2023-07-13T01:26:24;11.02;;;2.70;;
19312;SDS011;9791;50.820;4.406;2023-07-13T01:28:51;11.48;;;2.60;;
19312;SDS011;9791;50.820;4.406;2023-07-13T01:31:17;11.70;;;2.40;;
19312;SDS011;9791;50.820;4.406;2023-07-13T01:33:43;7.82;;;2.42;;
19312;SDS011;9791;50.820;4.406;2023-07-13T01:36:09;8.68;;;2.10;;
19312;SDS011;9791;50.820;4.406;2023-07-13T01:38:36;11.20;;;2.25;;
19312;SDS011;9791;50.820;4.406;2023-07-13T01:41:02;8.45;;;1.95;;
19312;SDS011;9791;50.820;4.406;2023-07-13T01:43:29;8.40;;;2.17;;
19312;SDS011;9791;50.820;4.406;2023-07-13T01:45:55;14.40;;;2.97;;
19312;SDS011;9791;50.820;4.406;2023-07-13T01:48:21;9.07;;;2.22;;
19312;SDS011;9791;50.820;4.406;2023-07-13T01:50:47;8.25;;;2.67;;
19312;SDS011;9791;50.820;4.406;2023-07-13T01:53:13;8.73;;;2.55;;
19312;SDS011;9791;50.820;4.406;2023-07-13T01:55:39;13.30;;;2.50;;
19312;SDS011;9791;50.820;4.406;2023-07-13T01:58:05;7.93;;;2.47;;
19312;SDS011;9791;50.820;4.406;2023-07-13T02:00:31;9.48;;;2.65;;
19312;SDS011;9791;50.820;4.406;2023-07-13T02:02:58;7.68;;;2.47;;
19312;SDS011;9791;50.820;4.406;2023-07-13T02:05:24;12.88;;;2.50;;
19312;SDS011;9791;50.820;4.406;2023-07-13T02:07:50;9.68;;;2.20;;
19312;SDS011;9791;50.820;4.406;2023-07-13T02:10:18;16.00;;;2.42;;
19312;SDS011;9791;50.820;4.406;2023-07-13T02:12:44;7.97;;;2.47;;
19312;SDS011;9791;50.820;4.406;2023-07-13T02:15:11;11.55;;;2.60;;
19312;SDS011;9791;50.820;4.406;2023-07-13T02:17:37;9.85;;;2.22;;
19312;SDS011;9791;50.820;4.406;2023-07-13T02:20:03;10.43;;;2.55;;
19312;SDS011;9791;50.820;4.406;2023-07-13T02:22:30;10.13;;;2.55;;
19312;SDS011;9791;50.820;4.406;2023-07-13T02:24:56;7.93;;;2.13;;
19312;SDS011;9791;50.820;4.406;2023-07-13T02:27:22;8.90;;;2.58;;
19312;SDS011;9791;50.820;4.406;2023-07-13T02:29:48;11.27;;;2.65;;
19312;SDS011;9791;50.820;4.406;2023-07-13T02:32:16;6.30;;;1.95;;
19312;SDS011;9791;50.820;4.406;2023-07-13T02:34:42;9.23;;;2.72;;
19312;SDS011;9791;50.820;4.406;2023-07-13T02:37:08;9.88;;;2.63;;
19312;SDS011;9791;50.820;4.406;2023-07-13T02:39:34;10.38;;;2.70;;
19312;SDS011;9791;50.820;4.406;2023-07-13T02:42:00;10.35;;;2.50;;
19312;SDS011;9791;50.820;4.406;2023-07-13T02:44:26;11.05;;;3.63;;
19312;SDS011;9791;50.820;4.406;2023-07-13T02:46:52;11.15;;;3.33;;
19312;SDS011;9791;50.820;4.406;2023-07-13T02:49:18;9.25;;;2.38;;
19312;SDS011;9791;50.820;4.406;2023-07-13T02:51:44;10.90;;;2.40;;
19312;SDS011;9791;50.820;4.406;2023-07-13T02:54:10;7.10;;;2.40;;
19312;SDS011;9791;50.820;4.406;2023-07-13T02:56:38;11.25;;;2.58;;
19312;SDS011;9791;50.820;4.406;2023-07-13T02:59:04;10.65;;;3.30;;
19312;SDS011;9791;50.820;4.406;2023-07-13T03:01:31;12.20;;;2.90;;
19312;SDS011;9791;50.820;4.406;2023-07-13T03:04:00;12.02;;;2.83;;
19312;SDS011;9791;50.820;4.406;2023-07-13T03:06:26;12.18;;;2.55;;
19312;SDS011;9791;50.820;4.406;2023-07-13T03:08:55;8.45;;;2.50;;
19312;SDS011;9791;50.820;4.406;2023-07-13T03:11:23;12.13;;;3.22;;
19312;SDS011;9791;50.820;4.406;2023-07-13T03:13:49;11.57;;;2.90;;
19312;SDS011;9791;50.820;4.406;2023-07-13T03:16:15;13.07;;;3.13;;
19312;SDS011;9791;50.820;4.406;2023-07-13T03:18:41;15.10;;;3.70;;
19312;SDS011;9791;50.820;4.406;2023-07-13T03:21:08;9.57;;;2.60;;
19312;SDS011;9791;50.820;4.406;2023-07-13T03:23:34;11.73;;;3.45;;
19312;SDS011;9791;50.820;4.406;2023-07-13T03:26:08;8.90;;;2.40;;
19312;SDS011;9791;50.820;4.406;2023-07-13T03:28:34;7.72;;;2.63;;
19312;SDS011;9791;50.820;4.406;2023-07-13T03:31:04;9.30;;;3.28;;
19312;SDS011;9791;50.820;4.406;2023-07-13T03:33:30;11.65;;;3.13;;
19312;SDS011;9791;50.820;4.406;2023-07-13T03:35:57;15.52;;;2.80;;
19312;SDS011;9791;50.820;4.406;2023-07-13T03:38:23;12.80;;;2.92;;
19312;SDS011;9791;50.820;4.406;2023-07-13T03:40:49;11.73;;;2.60;;
19312;SDS011;9791;50.820;4.406;2023-07-13T03:43:15;12.18;;;2.90;;
19312;SDS011;9791;50.820;4.406;2023-07-13T03:45:41;12.40;;;2.90;;
19312;SDS011;9791;50.820;4.406;2023-07-13T03:48:07;12.52;;;3.15;;
19312;SDS011;9791;50.820;4.406;2023-07-13T03:50:33;8.65;;;2.92;;
19312;SDS011;9791;50.820;4.406;2023-07-13T03:52:59;17.23;;;3.88;;
19312;SDS011;9791;50.820;4.406;2023-07-13T03:55:25;9.07;;;2.53;;
19312;SDS011;9791;50.820;4.406;2023-07-13T03:57:53;11.20;;;3.10;;
19312;SDS011;9791;50.820;4.406;2023-07-13T04:00:19;11.98;;;2.83;;
19312;SDS011;9791;50.820;4.406;2023-07-13T04:02:47;15.57;;;3.17;;
19312;SDS011;9791;50.820;4.406;2023-07-13T04:05:14;12.02;;;2.95;;
19312;SDS011;9791;50.820;4.406;2023-07-13T04:07:40;10.38;;;3.13;;
19312;SDS011;9791;50.820;4.406;2023-07-13T04:10:07;12.38;;;3.45;;
19312;SDS011;9791;50.820;4.406;2023-07-13T04:12:33;10.73;;;2.85;;
19312;SDS011;9791;50.820;4.406;2023-07-13T04:14:59;12.40;;;3.00;;
19312;SDS011;9791;50.820;4.406;2023-07-13T04:17:25;10.25;;;3.17;;
19312;SDS011;9791;50.820;4.406;2023-07-13T04:19:51;10.15;;;3.30;;
19312;SDS011;9791;50.820;4.406;2023-07-13T04:22:17;12.82;;;3.28;;
19312;SDS011;9791;50.820;4.406;2023-07-13T04:24:43;11.13;;;2.58;;
19312;SDS011;9791;50.820;4.406;2023-07-13T04:27:09;11.82;;;2.85;;
19312;SDS011;9791;50.820;4.406;2023-07-13T04:29:35;11.57;;;2.58;;
19312;SDS011;9791;50.820;4.406;2023-07-13T04:32:01;12.90;;;3.33;;
19312;SDS011;9791;50.820;4.406;2023-07-13T04:34:27;14.00;;;3.40;;
19312;SDS011;9791;50.820;4.406;2023-07-13T04:36:53;15.27;;;2.63;;
19312;SDS011;9791;50.820;4.406;2023-07-13T04:39:19;11.27;;;3.25;;
19312;SDS011;9791;50.820;4.406;2023-07-13T04:41:45;10.85;;;3.30;;
19312;SDS011;9791;50.820;4.406;2023-07-13T04:44:11;14.95;;;3.28;;
19312;SDS011;9791;50.820;4.406;2023-07-13T04:46:37;16.73;;;3.38;;
19312;SDS011;9791;50.820;4.406;2023-07-13T04:49:03;13.80;;;2.90;;
19312;SDS011;9791;50.820;4.406;2023-07-13T04:51:29;8.40;;;2.53;;
19312;SDS011;9791;50.820;4.406;2023-07-13T04:53:56;12.32;;;3.08;;
19312;SDS011;9791;50.820;4.406;2023-07-13T04:56:22;10.23;;;3.35;;
19312;SDS011;9791;50.820;4.406;2023-07-13T04:58:49;11.38;;;2.90;;
19312;SDS011;9791;50.820;4.406;2023-07-13T05:01:15;8.93;;;2.78;;
19312;SDS011;9791;50.820;4.406;2023-07-13T05:03:41;14.13;;;4.03;;
19312;SDS011;9791;50.820;4.406;2023-07-13T05:06:08;12.82;;;2.95;;
19312;SDS011;9791;50.820;4.406;2023-07-13T05:08:38;10.07;;;2.90;;
19312;SDS011;9791;50.820;4.406;2023-07-13T05:11:05;15.18;;;3.30;;
19312;SDS011;9791;50.820;4.406;2023-07-13T05:13:32;17.42;;;3.33;;
19312;SDS011;9791;50.820;4.406;2023-07-13T05:15:58;15.60;;;3.30;;
19312;SDS011;9791;50.820;4.406;2023-07-13T05:18:25;14.68;;;3.05;;
19312;SDS011;9791;50.820;4.406;2023-07-13T05:21:02;14.43;;;3.45;;
19312;SDS011;9791;50.820;4.406;2023-07-13T05:23:28;13.85;;;3.13;;
19312;SDS011;9791;50.820;4.406;2023-07-13T05:25:55;11.13;;;2.90;;
19312;SDS011;9791;50.820;4.406;2023-07-13T05:28:25;6.95;;;2.28;;
19312;SDS011;9791;50.820;4.406;2023-07-13T05:30:51;12.57;;;3.03;;
19312;SDS011;9791;50.820;4.406;2023-07-13T05:33:17;12.07;;;3.10;;
19312;SDS011;9791;50.820;4.406;2023-07-13T05:35:43;13.45;;;2.97;;
19312;SDS011;9791;50.820;4.406;2023-07-13T05:38:09;12.45;;;2.65;;
19312;SDS011;9791;50.820;4.406;2023-07-13T05:40:35;7.43;;;2.60;;
19312;SDS011;9791;50.820;4.406;2023-07-13T05:43:01;13.75;;;3.15;;
19312;SDS011;9791;50.820;4.406;2023-07-13T05:45:27;12.93;;;2.90;;
19312;SDS011;9791;50.820;4.406;2023-07-13T05:47:53;14.52;;;3.05;;
19312;SDS011;9791;50.820;4.406;2023-07-13T05:50:19;12.20;;;3.20;;
19312;SDS011;9791;50.820;4.406;2023-07-13T05:52:46;14.23;;;2.53;;
19312;SDS011;9791;50.820;4.406;2023-07-13T05:55:12;15.70;;;3.80;;
19312;SDS011;9791;50.820;4.406;2023-07-13T05:57:38;14.02;;;2.90;;
19312;SDS011;9791;50.820;4.406;2023-07-13T06:00:04;11.90;;;3.20;;
19312;SDS011;9791;50.820;4.406;2023-07-13T06:02:30;12.02;;;3.35;;
19312;SDS011;9791;50.820;4.406;2023-07-13T06:04:56;13.55;;;3.28;;
19312;SDS011;9791;50.820;4.406;2023-07-13T06:07:22;15.45;;;3.65;;
19312;SDS011;9791;50.820;4.406;2023-07-13T06:09:48;10.95;;;3.17;;
19312;SDS011;9791;50.820;4.406;2023-07-13T06:12:14;9.45;;;2.88;;
19312;SDS011;9791;50.820;4.406;2023-07-13T06:14:40;12.50;;;3.28;;
19312;SDS011;9791;50.820;4.406;2023-07-13T06:17:07;13.35;;;3.00;;
19312;SDS011;9791;50.820;4.406;2023-07-13T06:19:33;12.18;;;3.10;;
19312;SDS011;9791;50.820;4.406;2023-07-13T06:21:59;11.88;;;2.80;;
19312;SDS011;9791;50.820;4.406;2023-07-13T06:24:25;18.27;;;3.03;;
19312;SDS011;9791;50.820;4.406;2023-07-13T06:26:51;15.85;;;3.80;;
19312;SDS011;9791;50.820;4.406;2023-07-13T06:29:17;13.32;;;3.70;;
19312;SDS011;9791;50.820;4.406;2023-07-13T06:31:43;16.55;;;3.08;;
19312;SDS011;9791;50.820;4.406;2023-07-13T06:34:10;14.93;;;2.67;;
19312;SDS011;9791;50.820;4.406;2023-07-13T06:36:36;10.45;;;2.72;;
19312;SDS011;9791;50.820;4.406;2023-07-13T06:39:03;12.15;;;3.50;;
19312;SDS011;9791;50.820;4.406;2023-07-13T06:41:30;8.00;;;3.22;;
19312;SDS011;9791;50.820;4.406;2023-07-13T06:43:57;11.02;;;2.90;;
19312;SDS011;9791;50.820;4.406;2023-07-13T06:46:23;9.50;;;3.20;;
19312;SDS011;9791;50.820;4.406;2023-07-13T06:48:49;11.30;;;2.88;;
19312;SDS011;9791;50.820;4.406;2023-07-13T06:51:15;13.73;;;3.03;;
19312;SDS011;9791;50.820;4.406;2023-07-13T06:53:41;9.20;;;2.45;;
19312;SDS011;9791;50.820;4.406;2023-07-13T06:56:09;11.68;;;3.05;;
19312;SDS011;9791;50.820;4.406;2023-07-13T06:58:36;10.45;;;2.70;;
19312;SDS011;9791;50.820;4.406;2023-07-13T07:01:02;8.15;;;2.90;;
19312;SDS011;9791;50.820;4.406;2023-07-13T07:03:29;8.20;;;2.60;;
19312;SDS011;9791;50.820;4.406;2023-07-13T07:06:18;10.27;;;3.20;;
19312;SDS011;9791;50.820;4.406;2023-07-13T07:08:42;9.73;;;2.53;;
19312;SDS011;9791;50.820;4.406;2023-07-13T07:11:23;16.58;;;3.85;;
19312;SDS011;9791;50.820;4.406;2023-07-13T07:13:49;10.63;;;2.15;;
19312;SDS011;9791;50.820;4.406;2023-07-13T07:16:15;13.55;;;2.70;;
19312;SDS011;9791;50.820;4.406;2023-07-13T07:18:41;9.85;;;2.70;;
19312;SDS011;9791;50.820;4.406;2023-07-13T07:21:07;8.27;;;2.42;;
19312;SDS011;9791;50.820;4.406;2023-07-13T07:23:34;9.73;;;2.85;;
19312;SDS011;9791;50.820;4.406;2023-07-13T07:26:00;10.77;;;2.72;;
19312;SDS011;9791;50.820;4.406;2023-07-13T07:28:26;6.47;;;2.10;;
19312;SDS011;9791;50.820;4.406;2023-07-13T07:30:53;10.68;;;2.88;;
19312;SDS011;9791;50.820;4.406;2023-07-13T07:33:20;8.55;;;2.33;;
19312;SDS011;9791;50.820;4.406;2023-07-13T07:35:46;9.25;;;2.45;;
19312;SDS011;9791;50.820;4.406;2023-07-13T07:38:12;7.90;;;2.42;;
19312;SDS011;9791;50.820;4.406;2023-07-13T07:40:39;8.20;;;1.98;;
19312;SDS011;9791;50.820;4.406;2023-07-13T07:43:05;9.05;;;2.58;;
19312;SDS011;9791;50.820;4.406;2023-07-13T07:45:31;6.53;;;2.00;;
19312;SDS011;9791;50.820;4.406;2023-07-13T07:47:58;8.40;;;2.53;;
19312;SDS011;9791;50.820;4.406;2023-07-13T07:50:27;8.00;;;2.20;;
19312;SDS011;9791;50.820;4.406;2023-07-13T07:52:53;9.05;;;2.10;;
19312;SDS011;9791;50.820;4.406;2023-07-13T07:55:21;7.07;;;2.15;;
19312;SDS011;9791;50.820;4.406;2023-07-13T07:57:47;7.22;;;1.98;;
19312;SDS011;9791;50.820;4.406;2023-07-13T08:00:13;11.63;;;2.20;;
19312;SDS011;9791;50.820;4.406;2023-07-13T08:02:40;7.85;;;1.92;;
19312;SDS011;9791;50.820;4.406;2023-07-13T08:05:06;6.85;;;2.25;;
19312;SDS011;9791;50.820;4.406;2023-07-13T08:07:33;10.27;;;2.47;;
19312;SDS011;9791;50.820;4.406;2023-07-13T08:09:59;8.73;;;2.35;;
19312;SDS011;9791;50.820;4.406;2023-07-13T08:12:25;11.48;;;2.47;;
19312;SDS011;9791;50.820;4.406;2023-07-13T08:14:51;6.95;;;2.00;;
19312;SDS011;9791;50.820;4.406;2023-07-13T08:17:19;8.43;;;1.90;;
19312;SDS011;9791;50.820;4.406;2023-07-13T08:19:45;9.05;;;2.17;;
19312;SDS011;9791;50.820;4.406;2023-07-13T08:22:11;9.95;;;2.78;;
19312;SDS011;9791;50.820;4.406;2023-07-13T08:24:38;9.25;;;2.20;;
19312;SDS011;9791;50.820;4.406;2023-07-13T08:27:04;7.15;;;2.10;;
19312;SDS011;9791;50.820;4.406;2023-07-13T08:29:30;8.88;;;2.25;;
19312;SDS011;9791;50.820;4.406;2023-07-13T08:31:59;6.68;;;1.98;;
19312;SDS011;9791;50.820;4.406;2023-07-13T08:34:26;6.65;;;2.03;;
19312;SDS011;9791;50.820;4.406;2023-07-13T08:36:52;7.43;;;2.13;;
19312;SDS011;9791;50.820;4.406;2023-07-13T08:39:19;8.02;;;2.30;;
19312;SDS011;9791;50.820;4.406;2023-07-13T08:41:46;8.02;;;2.03;;
19312;SDS011;9791;50.820;4.406;2023-07-13T08:44:21;7.75;;;1.95;;
19312;SDS011;9791;50.820;4.406;2023-07-13T08:46:49;6.28;;;1.63;;
19312;SDS011;9791;50.820;4.406;2023-07-13T08:49:18;7.03;;;2.22;;
19312;SDS011;9791;50.820;4.406;2023-07-13T08:51:49;6.45;;;2.10;;
19312;SDS011;9791;50.820;4.406;2023-07-13T08:54:32;8.50;;;2.03;;
19312;SDS011;9791;50.820;4.406;2023-07-13T08:57:02;8.20;;;2.05;;
19312;SDS011;9791;50.820;4.406;2023-07-13T08:59:33;5.78;;;1.92;;
19312;SDS011;9791;50.820;4.406;2023-07-13T09:04:37;9.13;;;1.95;;
19312;SDS011;9791;50.820;4.406;2023-07-13T09:09:47;6.93;;;1.77;;
19312;SDS011;9791;50.820;4.406;2023-07-13T09:14:48;6.85;;;1.80;;
19312;SDS011;9791;50.820;4.406;2023-07-13T09:17:16;9.27;;;2.20;;
19312;SDS011;9791;50.820;4.406;2023-07-13T09:19:43;9.20;;;2.33;;
19312;SDS011;9791;50.820;4.406;2023-07-13T09:22:13;7.40;;;2.15;;
19312;SDS011;9791;50.820;4.406;2023-07-13T09:24:45;8.07;;;2.08;;
19312;SDS011;9791;50.820;4.406;2023-07-13T09:27:15;9.77;;;1.95;;
19312;SDS011;9791;50.820;4.406;2023-07-13T09:29:48;10.15;;;2.55;;
19312;SDS011;9791;50.820;4.406;2023-07-13T09:32:14;8.93;;;2.08;;
19312;SDS011;9791;50.820;4.406;2023-07-13T09:34:49;6.55;;;1.88;;
19312;SDS011;9791;50.820;4.406;2023-07-13T09:37:16;7.75;;;1.92;;
19312;SDS011;9791;50.820;4.406;2023-07-13T09:39:42;8.55;;;2.03;;
19312;SDS011;9791;50.820;4.406;2023-07-13T09:44:38;7.45;;;2.70;;
19312;SDS011;9791;50.820;4.406;2023-07-13T09:47:21;6.82;;;2.05;;
19312;SDS011;9791;50.820;4.406;2023-07-13T09:49:48;8.93;;;2.22;;
19312;SDS011;9791;50.820;4.406;2023-07-13T09:52:20;8.75;;;2.30;;
19312;SDS011;9791;50.820;4.406;2023-07-13T09:54:48;6.18;;;1.70;;
19312;SDS011;9791;50.820;4.406;2023-07-13T09:57:18;5.57;;;1.88;;
19312;SDS011;9791;50.820;4.406;2023-07-13T09:59:48;8.43;;;2.10;;
19312;SDS011;9791;50.820;4.406;2023-07-13T10:05:03;5.65;;;1.60;;
19312;SDS011;9791;50.820;4.406;2023-07-13T10:07:30;6.95;;;2.15;;
19312;SDS011;9791;50.820;4.406;2023-07-13T10:09:56;4.20;;;1.50;;
19312;SDS011;9791;50.820;4.406;2023-07-13T10:12:23;7.63;;;1.80;;
19312;SDS011;9791;50.820;4.406;2023-07-13T10:14:51;5.55;;;1.88;;
19312;SDS011;9791;50.820;4.406;2023-07-13T10:17:20;6.70;;;1.95;;
19312;SDS011;9791;50.820;4.406;2023-07-13T10:19:50;6.25;;;1.77;;
19312;SDS011;9791;50.820;4.406;2023-07-13T10:22:27;6.55;;;1.70;;
19312;SDS011;9791;50.820;4.406;2023-07-13T10:24:57;7.72;;;2.00;;
19312;SDS011;9791;50.820;4.406;2023-07-13T10:27:33;4.88;;;1.55;;
19312;SDS011;9791;50.820;4.406;2023-07-13T10:32:50;4.88;;;1.55;;
19312;SDS011;9791;50.820;4.406;2023-07-13T10:35:18;6.75;;;1.63;;
19312;SDS011;9791;50.820;4.406;2023-07-13T10:40:18;5.90;;;1.50;;
19312;SDS011;9791;50.820;4.406;2023-07-13T10:42:46;7.70;;;1.67;;
19312;SDS011;9791;50.820;4.406;2023-07-13T10:45:17;6.07;;;1.50;;
19312;SDS011;9791;50.820;4.406;2023-07-13T10:47:44;7.20;;;1.65;;
19312;SDS011;9791;50.820;4.406;2023-07-13T10:50:18;7.70;;;1.58;;
19312;SDS011;9791;50.820;4.406;2023-07-13T11:03:17;8.00;;;1.55;;
19312;SDS011;9791;50.820;4.406;2023-07-13T11:05:44;5.65;;;1.77;;
19312;SDS011;9791;50.820;4.406;2023-07-13T11:08:32;6.60;;;1.30;;
19312;SDS011;9791;50.820;4.406;2023-07-13T11:10:59;7.88;;;1.42;;
19312;SDS011;9791;50.820;4.406;2023-07-13T11:16:21;5.75;;;1.75;;
19312;SDS011;9791;50.820;4.406;2023-07-13T11:21:28;6.53;;;1.55;;
19312;SDS011;9791;50.820;4.406;2023-07-13T11:24:14;5.03;;;1.50;;
19312;SDS011;9791;50.820;4.406;2023-07-13T11:29:24;6.55;;;1.65;;
19312;SDS011;9791;50.820;4.406;2023-07-13T11:31:56;7.35;;;1.80;;
19312;SDS011;9791;50.820;4.406;2023-07-13T11:34:31;6.82;;;1.30;;
19312;SDS011;9791;50.820;4.406;2023-07-13T11:36:58;4.55;;;1.15;;
19312;SDS011;9791;50.820;4.406;2023-07-13T11:39:31;7.22;;;1.63;;
19312;SDS011;9791;50.820;4.406;2023-07-13T11:42:05;7.72;;;1.70;;
19312;SDS011;9791;50.820;4.406;2023-07-13T11:44:32;5.57;;;1.50;;
19312;SDS011;9791;50.820;4.406;2023-07-13T11:47:00;5.35;;;1.40;;
19312;SDS011;9791;50.820;4.406;2023-07-13T11:49:36;5.50;;;1.50;;
19312;SDS011;9791;50.820;4.406;2023-07-13T11:52:04;6.85;;;1.50;;
19312;SDS011;9791;50.820;4.406;2023-07-13T11:54:41;8.05;;;1.58;;
19312;SDS011;9791;50.820;4.406;2023-07-13T11:57:20;5.22;;;1.75;;
19312;SDS011;9791;50.820;4.406;2023-07-13T11:59:48;6.63;;;1.42;;
19312;SDS011;9791;50.820;4.406;2023-07-13T12:02:24;4.85;;;1.50;;
19312;SDS011;9791;50.820;4.406;2023-07-13T12:04:51;4.72;;;1.38;;
19312;SDS011;9791;50.820;4.406;2023-07-13T12:07:18;3.63;;;1.40;;
19312;SDS011;9791;50.820;4.406;2023-07-13T12:09:44;7.45;;;1.60;;
19312;SDS011;9791;50.820;4.406;2023-07-13T12:12:16;5.47;;;1.48;;
19312;SDS011;9791;50.820;4.406;2023-07-13T12:14:42;8.52;;;1.77;;
19312;SDS011;9791;50.820;4.406;2023-07-13T12:17:11;5.70;;;1.20;;
19312;SDS011;9791;50.820;4.406;2023-07-13T12:19:39;4.70;;;1.23;;
19312;SDS011;9791;50.820;4.406;2023-07-13T12:22:08;6.03;;;1.65;;
19312;SDS011;9791;50.820;4.406;2023-07-13T12:24:35;6.50;;;1.77;;
19312;SDS011;9791;50.820;4.406;2023-07-13T12:27:02;5.57;;;1.50;;
19312;SDS011;9791;50.820;4.406;2023-07-13T12:29:29;4.97;;;1.40;;
19312;SDS011;9791;50.820;4.406;2023-07-13T12:31:55;6.38;;;1.38;;
19312;SDS011;9791;50.820;4.406;2023-07-13T12:34:22;6.30;;;1.58;;
19312;SDS011;9791;50.820;4.406;2023-07-13T12:36:59;4.60;;;1.25;;
19312;SDS011;9791;50.820;4.406;2023-07-13T12:41:59;5.43;;;1.00;;
19312;SDS011;9791;50.820;4.406;2023-07-13T12:44:34;3.88;;;1.45;;
19312;SDS011;9791;50.820;4.406;2023-07-13T12:47:06;6.72;;;1.45;;
19312;SDS011;9791;50.820;4.406;2023-07-13T12:49:39;6.32;;;1.70;;
19312;SDS011;9791;50.820;4.406;2023-07-13T12:52:10;6.68;;;1.58;;
19312;SDS011;9791;50.820;4.406;2023-07-13T12:54:39;5.45;;;1.60;;
19312;SDS011;9791;50.820;4.406;2023-07-13T12:57:05;4.90;;;1.10;;
19312;SDS011;9791;50.820;4.406;2023-07-13T12:59:34;4.35;;;1.42;;
19312;SDS011;9791;50.820;4.406;2023-07-13T13:02:01;5.97;;;1.83;;
19312;SDS011;9791;50.820;4.406;2023-07-13T13:04:28;6.45;;;1.52;;
19312;SDS011;9791;50.820;4.406;2023-07-13T13:07:01;7.10;;;1.83;;
19312;SDS011;9791;50.820;4.406;2023-07-13T13:09:27;4.38;;;1.30;;
19312;SDS011;9791;50.820;4.406;2023-07-13T13:11:53;6.55;;;1.58;;
19312;SDS011;9791;50.820;4.406;2023-07-13T13:14:19;5.63;;;1.60;;
19312;SDS011;9791;50.820;4.406;2023-07-13T13:16:47;4.15;;;1.45;;
19312;SDS011;9791;50.820;4.406;2023-07-13T13:19:19;5.53;;;1.60;;
19312;SDS011;9791;50.820;4.406;2023-07-13T13:21:46;5.45;;;1.52;;
19312;SDS011;9791;50.820;4.406;2023-07-13T13:24:13;4.20;;;1.70;;
19312;SDS011;9791;50.820;4.406;2023-07-13T13:26:40;6.35;;;1.73;;
19312;SDS011;9791;50.820;4.406;2023-07-13T13:29:13;4.40;;;1.60;;
19312;SDS011;9791;50.820;4.406;2023-07-13T13:31:39;5.03;;;1.80;;
19312;SDS011;9791;50.820;4.406;2023-07-13T13:34:07;6.22;;;1.58;;
19312;SDS011;9791;50.820;4.406;2023-07-13T13:36:34;4.82;;;1.27;;
19312;SDS011;9791;50.820;4.406;2023-07-13T13:39:00;3.83;;;1.33;;
19312;SDS011;9791;50.820;4.406;2023-07-13T13:41:27;7.35;;;1.48;;
19312;SDS011;9791;50.820;4.406;2023-07-13T13:43:53;4.57;;;1.75;;
19312;SDS011;9791;50.820;4.406;2023-07-13T13:46:20;4.25;;;1.50;;
19312;SDS011;9791;50.820;4.406;2023-07-13T13:48:47;6.50;;;1.50;;
19312;SDS011;9791;50.820;4.406;2023-07-13T13:51:20;3.58;;;1.40;;
19312;SDS011;9791;50.820;4.406;2023-07-13T13:53:47;4.35;;;1.73;;
19312;SDS011;9791;50.820;4.406;2023-07-13T13:56:14;4.60;;;1.27;;
19312;SDS011;9791;50.820;4.406;2023-07-13T13:58:40;3.80;;;1.30;;
19312;SDS011;9791;50.820;4.406;2023-07-13T14:01:39;3.53;;;1.20;;
19312;SDS011;9791;50.820;4.406;2023-07-13T14:03:58;5.50;;;1.30;;
19312;SDS011;9791;50.820;4.406;2023-07-13T14:06:24;4.75;;;1.33;;
19312;SDS011;9791;50.820;4.406;2023-07-13T14:08:50;4.75;;;1.17;;
19312;SDS011;9791;50.820;4.406;2023-07-13T14:11:17;5.85;;;1.30;;
19312;SDS011;9791;50.820;4.406;2023-07-13T14:13:45;4.00;;;1.38;;
19312;SDS011;9791;50.820;4.406;2023-07-13T14:16:13;5.38;;;1.75;;
19312;SDS011;9791;50.820;4.406;2023-07-13T14:18:40;4.43;;;1.42;;
19312;SDS011;9791;50.820;4.406;2023-07-13T14:21:17;5.63;;;1.45;;
19312;SDS011;9791;50.820;4.406;2023-07-13T14:23:44;5.15;;;1.60;;
19312;SDS011;9791;50.820;4.406;2023-07-13T14:26:14;5.45;;;1.48;;
19312;SDS011;9791;50.820;4.406;2023-07-13T14:28:44;5.38;;;1.55;;
19312;SDS011;9791;50.820;4.406;2023-07-13T14:31:14;5.22;;;1.30;;
19312;SDS011;9791;50.820;4.406;2023-07-13T14:33:40;5.53;;;1.73;;
19312;SDS011;9791;50.820;4.406;2023-07-13T14:37:08;6.35;;;1.90;;
19312;SDS011;9791;50.820;4.406;2023-07-13T14:39:09;5.07;;;1.73;;
19312;SDS011;9791;50.820;4.406;2023-07-13T14:41:36;4.32;;;1.40;;
19312;SDS011;9791;50.820;4.406;2023-07-13T14:44:08;5.78;;;1.40;;
19312;SDS011;9791;50.820;4.406;2023-07-13T14:46:34;4.38;;;1.55;;
19312;SDS011;9791;50.820;4.406;2023-07-13T14:49:04;6.07;;;1.50;;
19312;SDS011;9791;50.820;4.406;2023-07-13T14:51:31;4.63;;;1.40;;
19312;SDS011;9791;50.820;4.406;2023-07-13T14:54:01;5.20;;;1.70;;
19312;SDS011;9791;50.820;4.406;2023-07-13T14:56:28;5.82;;;1.38;;
19312;SDS011;9791;50.820;4.406;2023-07-13T14:58:54;3.30;;;1.45;;
19312;SDS011;9791;50.820;4.406;2023-07-13T15:01:20;4.63;;;1.35;;
19312;SDS011;9791;50.820;4.406;2023-07-13T15:03:48;4.95;;;1.45;;
19312;SDS011;9791;50.820;4.406;2023-07-13T15:06:14;5.15;;;1.73;;
19312;SDS011;9791;50.820;4.406;2023-07-13T15:08:40;5.18;;;1.73;;
19312;SDS011;9791;50.820;4.406;2023-07-13T15:11:07;4.45;;;1.30;;
19312;SDS011;9791;50.820;4.406;2023-07-13T15:13:36;3.28;;;1.20;;
19312;SDS011;9791;50.820;4.406;2023-07-13T15:16:03;4.90;;;1.65;;
19312;SDS011;9791;50.820;4.406;2023-07-13T15:18:31;5.35;;;1.40;;
19312;SDS011;9791;50.820;4.406;2023-07-13T15:20:58;5.00;;;1.58;;
19312;SDS011;9791;50.820;4.406;2023-07-13T15:23:27;6.57;;;1.60;;
19312;SDS011;9791;50.820;4.406;2023-07-13T15:25:53;3.63;;;1.45;;
19312;SDS011;9791;50.820;4.406;2023-07-13T15:28:20;3.42;;;1.25;;
19312;SDS011;9791;50.820;4.406;2023-07-13T15:30:48;6.40;;;1.63;;
19312;SDS011;9791;50.820;4.406;2023-07-13T15:33:26;4.90;;;1.27;;
19312;SDS011;9791;50.820;4.406;2023-07-13T15:35:52;3.95;;;1.40;;
19312;SDS011;9791;50.820;4.406;2023-07-13T15:38:23;6.20;;;1.63;;
19312;SDS011;9791;50.820;4.406;2023-07-13T15:40:50;4.53;;;1.30;;